Terminal Aerodrome Forecast
Issued by NWS Upton, NY

Home | Current Version | Previous Version | Text Only | Print | Product List | Glossary On
Versions: 1 2 3 4 5 6 7 8 9 10 11 12 13 14 15 16 17 18 19 20 21 22 23 24 25 26 27 28 29 30
749
FTUS41 KOKX 260243 AAB
TAFLGA
TAF AMD
KLGA 260243Z 2603/2624 12004KT P6SM FEW250
     FM260500 12006KT P6SM OVC008
      TEMPO 2606/2608 4SM BR
     FM260800 06004KT 3SM BR OVC006
     FM261400 06006KT 5SM BR SCT010 BKN250
      TEMPO 2614/2616 BKN010
     FM261600 06008KT P6SM FEW020 BKN250
     FM262100 13008KT P6SM FEW025 BKN250=

USA.gov is the U.S. government's official web portal to all federal, state and local government web resources and services.